createdAt,value
2019-02-16T00:01:30.542Z,68.79
2019-02-16T00:07:02.682Z,69.02
2019-02-16T00:09:32.991Z,68.67
2019-02-16T00:12:21.409Z,68.67
2019-02-16T00:17:39.288Z,68.42
2019-02-16T00:20:29.370Z,68.37
2019-02-16T00:22:58.851Z,68.25
2019-02-16T00:25:28.340Z,68.17
2019-02-16T00:27:57.807Z,67.99
2019-02-16T00:30:27.300Z,67.99
2019-02-16T00:32:59.031Z,67.71
2019-02-16T00:35:28.459Z,67.98
2019-02-16T00:37:57.952Z,67.98
2019-02-16T00:40:27.388Z,67.20
2019-02-16T00:42:56.791Z,67.20
2019-02-16T00:45:44.481Z,67.08
2019-02-16T00:48:13.876Z,67.17
2019-02-16T00:50:43.312Z,67.03
2019-02-16T01:01:04.111Z,66.32
2019-02-16T01:03:33.497Z,66.17
2019-02-16T01:06:13.931Z,65.76
2019-02-16T01:08:43.977Z,65.75
2019-02-16T01:11:13.445Z,65.40
2019-02-16T01:13:42.859Z,65.19
2019-02-16T01:16:31.106Z,65.19
2019-02-16T01:19:11.859Z,64.88
2019-02-16T01:21:41.916Z,65.00
2019-02-16T01:24:30.230Z,64.68
2019-02-16T01:27:18.734Z,64.45
2019-02-16T01:30:00.167Z,64.03
2019-02-16T01:32:43.293Z,64.03
2019-02-16T01:37:56.133Z,63.41
2019-02-16T01:40:28.075Z,63.46
2019-02-16T01:42:57.671Z,63.46
2019-02-16T01:45:27.083Z,63.31
2019-02-16T01:47:56.585Z,63.27
2019-02-16T01:50:28.807Z,63.29
2019-02-16T01:52:58.242Z,63.15
2019-02-16T01:55:29.610Z,63.03
2019-02-16T01:57:59.012Z,63.06
2019-02-16T02:00:28.742Z,62.92
2019-02-16T02:05:33.331Z,63.26
2019-02-16T02:08:22.323Z,62.93
2019-02-16T02:11:04.429Z,62.93
2019-02-16T02:13:33.890Z,62.89
2019-02-16T02:16:03.361Z,62.74
2019-02-16T02:18:32.791Z,62.80
2019-02-16T02:21:02.337Z,62.83
2019-02-16T02:23:31.728Z,62.92
2019-02-16T02:26:01.161Z,62.89
2019-02-16T02:28:30.964Z,62.80
2019-02-16T02:31:00.367Z,62.88
2019-02-16T02:33:29.883Z,63.16
2019-02-16T02:35:59.263Z,63.16
2019-02-16T02:38:28.717Z,63.17
2019-02-16T02:40:58.156Z,63.17
2019-02-16T02:43:27.875Z,63.08
2019-02-16T02:45:57.260Z,63.21
2019-02-16T02:48:45.961Z,62.97
2019-02-16T02:51:15.519Z,62.97
2019-02-16T02:53:45.076Z,63.12
2019-02-16T02:56:41.626Z,63.36
2019-02-16T03:01:58.695Z,63.36
2019-02-16T03:04:28.279Z,63.49
2019-02-16T03:06:57.826Z,63.45
2019-02-16T03:09:30.285Z,63.55
2019-02-16T03:12:01.643Z,63.56
2019-02-16T03:14:31.116Z,63.49
2019-02-16T03:17:00.926Z,63.11
2019-02-16T03:19:50.841Z,63.11
2019-02-16T03:22:20.465Z,63.12
2019-02-16T03:24:49.980Z,62.92
2019-02-16T03:27:57.360Z,62.74
2019-02-16T03:30:53.466Z,62.74
2019-02-16T03:33:34.425Z,62.01
2019-02-16T03:36:41.761Z,62.06
2019-02-16T03:39:49.332Z,62.06
2019-02-16T03:42:18.844Z,62.19
2019-02-16T03:44:50.707Z,62.00
2019-02-16T03:47:20.190Z,62.02
2019-02-16T03:50:08.795Z,61.90
2019-02-16T03:52:38.287Z,61.90
2019-02-16T03:55:07.696Z,62.08
2019-02-16T03:57:37.124Z,62.01
2019-02-16T04:00:18.579Z,62.05
2019-02-16T04:02:59.552Z,61.84
2019-02-16T04:05:29.263Z,61.84
2019-02-16T04:07:58.751Z,62.52
2019-02-16T04:10:28.196Z,62.76
2019-02-16T04:12:57.706Z,63.29
2019-02-16T04:15:27.183Z,63.29
2019-02-16T04:17:56.651Z,62.98
2019-02-16T04:20:26.115Z,63.06
2019-02-16T04:22:55.639Z,63.01
2019-02-16T04:25:25.309Z,63.09
2019-02-16T04:27:54.872Z,63.17
2019-02-16T04:30:24.604Z,63.29
2019-02-16T04:33:13.202Z,63.26
2019-02-16T04:35:44.098Z,62.98
2019-02-16T04:38:13.525Z,62.98
2019-02-16T04:40:43.032Z,63.42
2019-02-16T04:43:12.453Z,63.37
2019-02-16T04:45:41.872Z,63.38
2019-02-16T04:48:11.413Z,63.37
2019-02-16T04:50:40.840Z,63.30
2019-02-16T04:53:10.401Z,63.29
2019-02-16T04:55:39.999Z,63.28
2019-02-16T04:58:09.442Z,63.29
2019-02-16T05:00:51.105Z,63.24
2019-02-16T05:06:09.291Z,63.13
2019-02-16T05:08:38.680Z,63.13
2019-02-16T05:11:08.159Z,63.33
2019-02-16T05:13:37.701Z,63.45
2019-02-16T05:16:07.139Z,63.44
2019-02-16T05:18:55.592Z,63.90
2019-02-16T05:21:25.234Z,63.90
2019-02-16T05:24:16.140Z,63.71
2019-02-16T05:26:45.817Z,63.73
2019-02-16T05:29:17.144Z,63.84
2019-02-16T05:31:47.321Z,63.96
2019-02-16T05:34:16.938Z,63.96
2019-02-16T05:36:46.326Z,64.11
2019-02-16T05:39:18.104Z,64.56
2019-02-16T05:41:47.507Z,64.56
2019-02-16T05:44:16.980Z,64.32
2019-02-16T05:47:09.323Z,64.30
2019-02-16T05:49:38.928Z,64.35
2019-02-16T05:52:08.400Z,64.52
2019-02-16T05:54:37.823Z,64.60
2019-02-16T05:57:07.326Z,64.98
2019-02-16T05:59:36.782Z,64.84
2019-02-16T06:02:07.155Z,65.01
2019-02-16T06:04:36.562Z,65.08
2019-02-16T06:07:06.979Z,65.14
2019-02-16T06:09:36.425Z,65.26
2019-02-16T06:12:06.067Z,65.38
2019-02-16T06:14:35.505Z,65.49
2019-02-16T06:17:04.983Z,65.55
2019-02-16T06:22:23.312Z,65.76
2019-02-16T06:27:45.155Z,66.04
2019-02-16T06:30:15.342Z,66.22
2019-02-16T06:38:15.178Z,66.48
2019-02-16T06:40:44.834Z,66.59
2019-02-16T06:43:19.757Z,66.68
2019-02-16T06:45:49.151Z,66.73
2019-02-16T06:48:18.656Z,66.78
2019-02-16T06:50:48.311Z,66.82
2019-02-16T06:53:17.888Z,66.94
2019-02-16T06:56:14.295Z,67.03
2019-02-16T06:58:43.804Z,67.04
2019-02-16T07:01:13.222Z,67.06
2019-02-16T07:03:53.827Z,67.06
2019-02-16T07:06:42.378Z,67.06
2019-02-16T07:09:11.956Z,66.46
2019-02-16T07:11:41.368Z,65.82
2019-02-16T07:14:10.792Z,65.10
2019-02-16T07:19:43.263Z,64.69
2019-02-16T07:22:12.854Z,64.61
2019-02-16T07:24:42.299Z,64.56
2019-02-16T07:27:11.734Z,64.49
2019-02-16T07:29:41.169Z,64.27
2019-02-16T07:32:10.548Z,64.22
2019-02-16T07:34:40.084Z,64.06
2019-02-16T07:37:09.476Z,63.90
2019-02-16T07:39:42.145Z,63.71
2019-02-16T07:42:11.833Z,63.51
2019-02-16T07:45:02.834Z,63.25
2019-02-16T07:47:41.741Z,63.10
2019-02-16T07:50:30.429Z,62.77
2019-02-16T07:55:48.609Z,62.42
2019-02-16T07:58:37.131Z,62.24
2019-02-16T08:01:49.687Z,62.03
2019-02-16T08:04:52.305Z,61.88
2019-02-16T08:07:42.807Z,61.84
2019-02-16T08:10:30.991Z,61.60
2019-02-16T08:13:34.435Z,61.63
2019-02-16T08:16:11.259Z,61.61
2019-02-16T08:18:59.710Z,61.50
2019-02-16T08:24:46.162Z,61.06
2019-02-16T08:27:34.873Z,60.96
2019-02-16T08:30:23.296Z,60.72
2019-02-16T08:33:14.116Z,60.44
2019-02-16T08:36:02.135Z,60.13
2019-02-16T08:38:50.440Z,60.09
2019-02-16T08:41:39.111Z,59.56
2019-02-16T08:44:27.533Z,59.42
2019-02-16T08:47:15.858Z,59.04
2019-02-16T08:50:04.145Z,58.81
2019-02-16T08:52:52.578Z,58.51
2019-02-16T08:55:35.901Z,58.14
2019-02-16T08:58:24.248Z,57.82
2019-02-16T09:01:13.206Z,57.49
2019-02-16T09:03:49.484Z,57.12
2019-02-16T09:06:25.930Z,56.56
2019-02-16T09:09:17.326Z,56.46
2019-02-16T09:12:06.067Z,56.07
2019-02-16T09:15:06.157Z,55.62
2019-02-16T09:20:55.918Z,54.75
2019-02-16T09:23:44.731Z,54.33
2019-02-16T09:26:36.140Z,54.05
2019-02-16T09:29:24.424Z,53.52
2019-02-16T09:32:13.303Z,53.07
2019-02-16T09:35:01.559Z,52.84
2019-02-16T09:37:49.903Z,52.50
2019-02-16T09:40:38.280Z,52.08
2019-02-16T09:43:45.525Z,51.85
2019-02-16T09:46:33.807Z,51.38
2019-02-16T09:49:22.133Z,50.86
2019-02-16T09:52:14.400Z,50.82
2019-02-16T09:55:02.858Z,50.11
2019-02-16T09:57:51.361Z,49.75
2019-02-16T10:00:39.689Z,48.88
2019-02-16T10:03:27.956Z,48.60
2019-02-16T10:06:16.400Z,48.60
2019-02-16T10:09:04.690Z,48.13
2019-02-16T10:11:53.081Z,47.17
2019-02-16T10:14:36.196Z,46.91
2019-02-16T10:17:26.143Z,46.48
2019-02-16T10:20:14.501Z,45.83
2019-02-16T10:25:56.923Z,45.27
2019-02-16T10:28:45.203Z,44.46
2019-02-16T10:31:33.858Z,44.13
2019-02-16T10:34:22.144Z,43.96
2019-02-16T10:37:10.557Z,44.53
2019-02-16T10:39:58.788Z,43.63
2019-02-16T10:42:37.172Z,43.04
2019-02-16T10:45:25.703Z,42.74
2019-02-16T10:48:01.204Z,42.19
2019-02-16T10:50:49.512Z,41.73
2019-02-16T10:53:37.650Z,41.89
2019-02-16T10:56:26.060Z,42.14
2019-02-16T10:59:14.529Z,40.52
2019-02-16T11:01:54.820Z,40.91
2019-02-16T11:04:44.377Z,40.84
2019-02-16T11:07:19.347Z,40.65
2019-02-16T11:10:11.528Z,40.87
2019-02-16T11:12:46.127Z,41.05
2019-02-16T11:15:35.134Z,40.74
2019-02-16T11:18:37.578Z,40.88
2019-02-16T11:21:26.257Z,41.03
2019-02-16T11:24:14.699Z,40.52
2019-02-16T11:26:51.523Z,40.53
2019-02-16T11:29:39.850Z,40.50
2019-02-16T11:32:28.206Z,40.63
2019-02-16T11:35:16.591Z,40.53
2019-02-16T11:38:23.941Z,40.72
2019-02-16T11:41:19.011Z,40.45
2019-02-16T11:44:11.643Z,40.17
2019-02-16T11:46:59.975Z,40.31
2019-02-16T11:49:48.404Z,39.98
2019-02-16T11:52:36.633Z,40.35
2019-02-16T11:55:25.288Z,40.40
2019-02-16T11:58:13.571Z,40.51
2019-02-16T12:01:02.005Z,40.64
2019-02-16T12:03:50.461Z,40.98
2019-02-16T12:06:27.845Z,40.62
2019-02-16T12:09:16.515Z,40.87
2019-02-16T12:12:14.675Z,40.65
2019-02-16T12:15:02.924Z,40.77
2019-02-16T12:17:51.405Z,41.15
2019-02-16T12:20:40.227Z,41.01
2019-02-16T12:26:23.761Z,41.03
2019-02-16T12:29:12.341Z,41.82
2019-02-16T12:32:06.727Z,41.73
2019-02-16T12:34:47.701Z,42.01
2019-02-16T12:37:36.152Z,42.55
2019-02-16T12:40:24.487Z,42.28
2019-02-16T12:43:14.020Z,42.35
2019-02-16T12:46:02.310Z,42.69
2019-02-16T12:48:50.795Z,42.72
2019-02-16T12:51:39.079Z,43.46
2019-02-16T12:54:27.441Z,43.48
2019-02-16T13:00:09.865Z,44.75
2019-02-16T13:02:58.231Z,45.37
2019-02-16T13:05:46.644Z,45.50
2019-02-16T13:08:35.030Z,46.25
2019-02-16T13:11:23.425Z,46.93
2019-02-16T13:14:16.439Z,47.65
2019-02-16T13:17:02.222Z,48.32
2019-02-16T13:22:28.426Z,49.03
2019-02-16T13:25:24.128Z,49.13
2019-02-16T13:30:50.095Z,49.32
2019-02-16T13:33:38.359Z,49.66
2019-02-16T13:36:26.889Z,50.19
2019-02-16T13:39:15.235Z,50.38
2019-02-16T13:42:04.215Z,50.22
2019-02-16T13:44:52.646Z,50.54
2019-02-16T13:47:33.538Z,50.86
2019-02-16T13:50:14.521Z,50.88
2019-02-16T13:55:36.296Z,51.53
2019-02-16T13:58:26.170Z,51.49
2019-02-16T14:01:21.164Z,51.53
2019-02-16T14:06:38.652Z,51.94
2019-02-16T14:09:27.282Z,52.50
2019-02-16T14:12:15.610Z,52.29
2019-02-16T14:15:10.444Z,52.93
2019-02-16T14:17:58.803Z,53.00
2019-02-16T14:20:28.231Z,53.32
2019-02-16T14:22:57.652Z,53.30
2019-02-16T14:25:32.053Z,53.40
2019-02-16T14:28:01.483Z,53.56
2019-02-16T14:33:19.473Z,53.75
2019-02-16T14:41:21.214Z,54.04
2019-02-16T14:43:50.758Z,54.50
2019-02-16T14:46:20.569Z,54.51
2019-02-16T14:48:50.195Z,54.54
2019-02-16T14:51:22.545Z,54.65
2019-02-16T14:53:52.179Z,54.92
2019-02-16T14:56:22.137Z,55.20
2019-02-16T14:58:51.898Z,55.43
2019-02-16T15:01:24.431Z,55.51
2019-02-16T15:03:54.111Z,55.67
2019-02-16T15:06:23.672Z,55.79
2019-02-16T15:08:55.135Z,56.02
2019-02-16T15:11:24.791Z,56.11
2019-02-16T15:13:54.659Z,56.24
2019-02-16T15:16:35.231Z,56.52
2019-02-16T15:24:38.853Z,57.50
2019-02-16T15:27:08.710Z,57.77
2019-02-16T15:29:38.126Z,58.04
2019-02-16T15:32:07.658Z,58.30
2019-02-16T15:34:37.070Z,58.39
2019-02-16T15:37:06.560Z,58.77
2019-02-16T15:39:36.157Z,59.10
2019-02-16T15:42:05.600Z,59.57
2019-02-16T15:44:35.104Z,60.04
2019-02-16T15:47:07.021Z,60.45
2019-02-16T15:49:36.454Z,60.79
2019-02-16T15:52:06.275Z,61.17
2019-02-16T15:54:35.824Z,61.53
2019-02-16T15:57:05.247Z,62.09
2019-02-16T15:59:35.398Z,62.45
2019-02-16T16:02:06.307Z,63.05
2019-02-16T16:07:29.984Z,64.12
2019-02-16T16:10:18.604Z,64.75
2019-02-16T16:13:16.701Z,65.20
2019-02-16T16:16:05.276Z,65.57
2019-02-16T16:18:40.639Z,66.01
2019-02-16T16:21:28.956Z,66.19
2019-02-16T16:24:17.637Z,66.53
2019-02-16T16:27:06.511Z,66.75
2019-02-16T16:29:54.805Z,66.95
2019-02-16T16:32:43.457Z,67.20
2019-02-16T16:35:31.998Z,67.58
2019-02-16T16:38:20.317Z,67.83
2019-02-16T16:41:08.732Z,68.09
2019-02-16T16:43:56.975Z,68.32
2019-02-16T16:46:45.348Z,68.57
2019-02-16T16:49:33.647Z,68.98
2019-02-16T16:52:22.909Z,69.08
2019-02-16T16:55:11.200Z,69.24
2019-02-16T16:57:59.506Z,69.56
2019-02-16T17:00:47.880Z,69.84
2019-02-16T17:03:26.339Z,70.10
2019-02-16T17:09:08.776Z,70.57
2019-02-16T17:11:57.285Z,70.75
2019-02-16T17:15:06.354Z,71.09
2019-02-16T17:17:54.995Z,71.30
2019-02-16T17:20:43.611Z,71.41
2019-02-16T17:23:32.418Z,71.51
2019-02-16T17:26:21.169Z,71.58
2019-02-16T17:29:02.552Z,71.61
2019-02-16T17:31:51.054Z,71.85
2019-02-16T17:34:39.407Z,72.00
2019-02-16T17:37:27.876Z,72.24
2019-02-16T17:43:09.501Z,72.60
2019-02-16T17:45:57.858Z,72.75
2019-02-16T17:48:46.167Z,72.97
2019-02-16T17:51:34.443Z,73.10
2019-02-16T17:54:22.883Z,73.23
2019-02-16T17:57:11.216Z,73.33
2019-02-16T17:59:59.639Z,73.50
2019-02-16T18:02:48.053Z,73.69
2019-02-16T18:05:36.537Z,73.73
2019-02-16T18:08:24.962Z,73.86
2019-02-16T18:11:06.507Z,73.89
2019-02-16T18:13:54.832Z,74.07
2019-02-16T18:16:35.525Z,74.11
2019-02-16T18:19:23.880Z,74.24
2019-02-16T18:22:02.502Z,74.34
2019-02-16T18:24:52.148Z,74.48
2019-02-16T18:27:40.428Z,74.66
2019-02-16T18:30:28.753Z,74.82
2019-02-16T18:33:17.234Z,75.00
2019-02-16T18:36:05.740Z,75.32
2019-02-16T18:38:54.080Z,75.50
2019-02-16T18:41:42.598Z,75.69
2019-02-16T18:44:31.043Z,75.86
2019-02-16T18:47:19.353Z,76.17
2019-02-16T18:50:07.655Z,76.18
2019-02-16T18:52:56.038Z,76.36
2019-02-16T18:55:41.966Z,76.55
2019-02-16T18:58:39.060Z,76.70
2019-02-16T19:01:28.387Z,76.87
2019-02-16T19:04:16.744Z,76.93
2019-02-16T19:07:05.418Z,77.11
2019-02-16T19:09:54.265Z,77.26
2019-02-16T19:12:43.537Z,77.42
2019-02-16T19:15:32.455Z,77.55
2019-02-16T19:18:21.002Z,77.65
2019-02-16T19:21:09.536Z,77.73
2019-02-16T19:27:02.978Z,78.07
2019-02-16T19:29:51.377Z,78.24
2019-02-16T19:32:39.997Z,78.37
2019-02-16T19:35:16.798Z,78.50
2019-02-16T19:38:28.122Z,78.65
2019-02-16T19:44:00.612Z,78.78
2019-02-16T19:46:49.252Z,78.87
2019-02-16T19:49:41.737Z,78.87
2019-02-16T19:52:30.509Z,78.94
2019-02-16T19:55:24.450Z,79.01
2019-02-16T19:58:00.655Z,78.99
2019-02-16T20:00:39.521Z,78.88
2019-02-16T20:03:27.820Z,78.90
2019-02-16T20:08:57.617Z,78.96
2019-02-16T20:14:49.845Z,78.96
2019-02-16T20:17:38.424Z,79.06
2019-02-16T20:20:28.050Z,79.23
2019-02-16T20:23:16.332Z,79.47
2019-02-16T20:26:04.643Z,79.59
2019-02-16T20:32:03.538Z,79.94
2019-02-16T20:34:58.217Z,80.24
2019-02-16T20:37:35.366Z,80.50
2019-02-16T20:40:38.445Z,80.67
2019-02-16T20:43:51.472Z,80.91
2019-02-16T20:46:03.850Z,81.18
2019-02-16T20:51:45.505Z,81.45
2019-02-16T20:54:48.539Z,81.37
2019-02-16T20:57:23.925Z,81.30
2019-02-16T21:00:08.428Z,81.29
2019-02-16T21:02:59.971Z,81.52
2019-02-16T21:08:41.206Z,81.97
2019-02-16T21:11:44.454Z,82.17
2019-02-16T21:14:32.750Z,82.13
2019-02-16T21:17:11.151Z,82.19
2019-02-16T21:20:00.293Z,82.22
2019-02-16T21:22:48.607Z,82.33
2019-02-16T21:25:37.553Z,82.29
2019-02-16T21:31:28.835Z,82.24
2019-02-16T21:34:18.984Z,82.33
2019-02-16T21:36:59.642Z,82.57
2019-02-16T21:39:47.975Z,82.78
2019-02-16T21:42:36.285Z,82.89
2019-02-16T21:45:25.400Z,83.15
2019-02-16T21:48:19.101Z,83.37
2019-02-16T21:51:07.373Z,83.72
2019-02-16T21:53:55.649Z,84.06
2019-02-16T21:56:46.994Z,84.51
2019-02-16T21:59:35.427Z,84.71
2019-02-16T22:02:23.701Z,85.03
2019-02-16T22:05:27.082Z,85.01
2019-02-16T22:08:17.096Z,85.12
2019-02-16T22:11:05.606Z,85.09
2019-02-16T22:13:49.240Z,85.04
2019-02-16T22:16:06.416Z,85.08
2019-02-16T22:18:36.063Z,85.21
2019-02-16T22:21:05.630Z,85.32
2019-02-16T22:23:37.798Z,85.57
2019-02-16T22:28:51.060Z,86.06
2019-02-16T22:31:20.641Z,86.21
2019-02-16T22:36:42.601Z,86.51
2019-02-16T22:39:12.043Z,86.59
2019-02-16T22:41:41.467Z,86.64
2019-02-16T22:44:10.941Z,86.58
2019-02-16T22:46:40.385Z,86.58
2019-02-16T22:49:09.811Z,86.47
2019-02-16T22:51:39.406Z,86.32
2019-02-16T22:54:08.821Z,86.43
2019-02-16T22:56:38.231Z,86.53
2019-02-16T23:02:01.828Z,86.67
2019-02-16T23:04:31.430Z,86.69
2019-02-16T23:07:00.886Z,86.70
2019-02-16T23:09:30.576Z,86.70
2019-02-16T23:12:00.103Z,86.61
2019-02-16T23:14:29.505Z,86.54
2019-02-16T23:16:58.985Z,86.39
2019-02-16T23:19:28.540Z,86.34
2019-02-16T23:21:57.944Z,86.25
2019-02-16T23:24:46.383Z,85.97
2019-02-16T23:27:28.005Z,85.75
2019-02-16T23:29:58.345Z,85.71
2019-02-16T23:32:27.815Z,85.77
2019-02-16T23:35:17.696Z,85.83
2019-02-16T23:37:47.405Z,85.70
2019-02-16T23:40:19.465Z,85.69
2019-02-16T23:42:48.979Z,85.50
2019-02-16T23:48:06.882Z,85.32
2019-02-16T23:50:38.011Z,85.10
2019-02-16T23:53:07.486Z,85.24
2019-02-16T23:55:37.146Z,85.30
2019-02-16T23:58:06.647Z,85.33
